createdAt,value
2023-02-13T00:00:57.219Z,2.96
2023-02-13T00:03:25.610Z,3.01
2023-02-13T00:05:53.030Z,3.10
2023-02-13T00:08:21.019Z,3.01
2023-02-13T00:10:52.918Z,2.97
2023-02-13T00:13:20.412Z,2.77
2023-02-13T00:15:59.072Z,2.87
2023-02-13T00:18:28.105Z,2.78
2023-02-13T00:21:04.113Z,2.93
2023-02-13T00:23:33.366Z,2.81
2023-02-13T00:26:01.591Z,2.69
2023-02-13T00:28:29.279Z,2.73
2023-02-13T00:31:09.916Z,2.82
2023-02-13T00:33:38.420Z,2.92
2023-02-13T00:36:11.867Z,2.83
2023-02-13T00:38:40.912Z,2.43
2023-02-13T00:41:09.457Z,2.72
2023-02-13T00:43:37.457Z,2.68
2023-02-13T00:46:05.706Z,2.49
2023-02-13T00:48:34.642Z,2.68
2023-02-13T00:51:02.740Z,2.54
2023-02-13T00:53:30.969Z,2.45
2023-02-13T00:55:58.824Z,2.43
2023-02-13T00:58:26.884Z,2.40
2023-02-13T01:00:55.826Z,2.45
2023-02-13T01:03:25.443Z,2.53
2023-02-13T01:05:53.471Z,2.47
2023-02-13T01:08:21.497Z,2.56
2023-02-13T01:10:49.947Z,2.53
2023-02-13T01:13:20.703Z,2.54
2023-02-13T01:15:49.449Z,2.63
2023-02-13T01:18:18.796Z,2.63
2023-02-13T01:21:05.535Z,2.58
2023-02-13T01:23:36.034Z,2.64
2023-02-13T01:26:08.151Z,2.65
2023-02-13T01:28:36.273Z,2.54
2023-02-13T01:31:05.271Z,2.63
2023-02-13T01:33:32.772Z,2.59
2023-02-13T01:36:06.516Z,2.49
2023-02-13T01:38:34.406Z,2.44
2023-02-13T01:41:02.442Z,2.54
2023-02-13T01:43:59.791Z,2.47
2023-02-13T01:46:42.841Z,2.53
2023-02-13T01:49:18.670Z,2.50
2023-02-13T01:51:47.776Z,2.91
2023-02-13T01:54:17.670Z,2.48
2023-02-13T01:56:50.621Z,2.10
2023-02-13T01:59:27.569Z,2.05
2023-02-13T02:01:56.192Z,2.04
2023-02-13T02:04:36.061Z,2.05
2023-02-13T02:07:10.454Z,2.19
2023-02-13T02:09:40.816Z,2.10
2023-02-13T02:12:20.673Z,2.14
2023-02-13T02:14:49.640Z,2.12
2023-02-13T02:17:18.685Z,1.92
2023-02-13T02:19:54.185Z,2.02
2023-02-13T02:22:55.624Z,2.10
2023-02-13T02:25:31.897Z,2.05
2023-02-13T02:28:22.417Z,2.01
2023-02-13T02:31:27.872Z,1.92
2023-02-13T02:34:17.964Z,1.85
2023-02-13T02:37:00.883Z,1.76
2023-02-13T02:39:44.656Z,1.80
2023-02-13T02:42:43.005Z,1.68
2023-02-13T02:45:19.895Z,1.71
2023-02-13T02:48:15.113Z,1.90
2023-02-13T02:50:53.555Z,1.79
2023-02-13T02:53:53.159Z,1.65
2023-02-13T02:56:27.566Z,1.82
2023-02-13T02:59:15.284Z,1.77
2023-02-13T03:02:03.177Z,1.85
2023-02-13T03:04:57.451Z,1.64
2023-02-13T03:07:25.702Z,1.74
2023-02-13T03:10:18.860Z,1.78
2023-02-13T03:13:13.583Z,1.68
2023-02-13T03:16:01.888Z,1.70
2023-02-13T03:18:50.885Z,1.76
2023-02-13T03:21:43.460Z,1.53
2023-02-13T03:24:19.605Z,1.37
2023-02-13T03:27:05.970Z,1.22
2023-02-13T03:30:04.577Z,1.43
2023-02-13T03:32:32.273Z,1.47
2023-02-13T03:36:01.408Z,1.47
2023-02-13T03:38:48.562Z,1.51
2023-02-13T03:41:25.756Z,1.47
2023-02-13T03:44:14.540Z,1.36
2023-02-13T03:46:46.166Z,1.37
2023-02-13T03:49:52.589Z,1.52
2023-02-13T03:52:43.619Z,1.45
2023-02-13T03:55:38.614Z,1.39
2023-02-13T03:58:48.532Z,1.34
2023-02-13T04:01:19.647Z,1.48
2023-02-13T04:04:05.848Z,1.25
2023-02-13T04:06:38.445Z,1.32
2023-02-13T04:09:06.202Z,1.14
2023-02-13T04:11:57.512Z,1.22
2023-02-13T04:14:29.209Z,1.34
2023-02-13T04:17:02.650Z,1.27
2023-02-13T04:19:32.384Z,1.32
2023-02-13T04:22:01.824Z,1.28
2023-02-13T04:24:30.203Z,1.34
2023-02-13T04:26:58.212Z,0.91
2023-02-13T04:29:26.392Z,1.10
2023-02-13T04:31:54.651Z,1.16
2023-02-13T04:34:22.336Z,1.19
2023-02-13T04:36:50.169Z,1.23
2023-02-13T04:39:18.062Z,1.15
2023-02-13T04:41:45.766Z,1.23
2023-02-13T04:44:13.691Z,1.07
2023-02-13T04:46:41.894Z,0.97
2023-02-13T04:49:10.888Z,1.17
2023-02-13T04:51:38.487Z,0.90
2023-02-13T04:54:06.432Z,0.95
2023-02-13T04:56:34.096Z,1.06
2023-02-13T04:59:01.596Z,1.07
2023-02-13T05:01:29.943Z,1.10
2023-02-13T05:03:57.831Z,1.05
2023-02-13T05:06:25.386Z,1.13
2023-02-13T05:08:53.602Z,1.02
2023-02-13T05:11:21.453Z,1.41
2023-02-13T05:13:49.296Z,0.90
2023-02-13T05:16:17.176Z,0.90
2023-02-13T05:18:45.044Z,1.02
2023-02-13T05:21:31.230Z,1.03
2023-02-13T05:23:59.101Z,0.90
2023-02-13T05:26:26.480Z,0.70
2023-02-13T05:29:13.288Z,0.73
2023-02-13T05:31:41.311Z,0.68
2023-02-13T05:34:08.884Z,0.59
2023-02-13T05:36:36.418Z,0.76
2023-02-13T05:39:04.410Z,0.76
2023-02-13T05:41:32.102Z,0.94
2023-02-13T05:44:00.142Z,0.66
2023-02-13T05:46:28.379Z,0.68
2023-02-13T05:48:56.307Z,0.77
2023-02-13T05:51:23.946Z,0.77
2023-02-13T05:53:52.086Z,0.60
2023-02-13T05:56:19.579Z,0.77
2023-02-13T05:58:47.076Z,0.55
2023-02-13T06:01:15.106Z,0.76
2023-02-13T06:03:42.913Z,0.54
2023-02-13T06:06:10.375Z,0.59
2023-02-13T06:08:37.973Z,0.76
2023-02-13T06:11:06.256Z,0.82
2023-02-13T06:13:33.834Z,0.63
2023-02-13T06:16:01.781Z,0.65
2023-02-13T06:18:29.985Z,0.63
2023-02-13T06:20:57.791Z,0.59
2023-02-13T06:23:25.491Z,0.69
2023-02-13T06:25:53.229Z,0.74
2023-02-13T06:28:21.190Z,0.59
2023-02-13T06:30:49.444Z,0.76
2023-02-13T06:33:17.334Z,0.65
2023-02-13T06:35:45.290Z,0.63
2023-02-13T06:38:12.834Z,0.86
2023-02-13T06:40:40.690Z,0.75
2023-02-13T06:43:08.314Z,0.81
2023-02-13T06:45:37.510Z,0.85
2023-02-13T06:48:05.896Z,0.83
2023-02-13T06:50:34.638Z,0.99
2023-02-13T06:53:03.180Z,0.98
2023-02-13T06:55:31.000Z,1.18
2023-02-13T06:57:58.443Z,1.15
2023-02-13T07:00:27.152Z,1.18
2023-02-13T07:02:55.243Z,1.56
2023-02-13T07:05:22.885Z,1.52
2023-02-13T07:07:50.525Z,1.61
2023-02-13T07:10:18.508Z,1.64
2023-02-13T07:12:56.825Z,1.68
2023-02-13T07:15:32.971Z,1.81
2023-02-13T07:18:01.106Z,1.64
2023-02-13T07:21:03.102Z,1.76
2023-02-13T07:23:36.787Z,1.89
2023-02-13T07:26:04.652Z,2.14
2023-02-13T07:28:32.870Z,2.48
2023-02-13T07:31:05.819Z,2.63
2023-02-13T07:33:34.753Z,2.68
2023-02-13T07:36:05.564Z,2.79
2023-02-13T07:38:33.441Z,2.92
2023-02-13T07:41:02.104Z,3.06
2023-02-13T07:43:30.318Z,2.92
2023-02-13T07:46:02.551Z,3.10
2023-02-13T07:48:31.611Z,3.20
2023-02-13T07:51:04.078Z,3.28
2023-02-13T07:53:32.703Z,3.33
2023-02-13T07:56:00.353Z,3.46
2023-02-13T07:58:27.948Z,3.42
2023-02-13T08:00:55.706Z,3.61
2023-02-13T08:03:23.432Z,3.85
2023-02-13T08:05:50.994Z,3.91
2023-02-13T08:08:18.558Z,4.01
2023-02-13T08:11:05.247Z,4.12
2023-02-13T08:13:32.906Z,4.46
2023-02-13T08:16:01.647Z,4.71
2023-02-13T08:18:31.692Z,4.51
2023-02-13T08:20:59.166Z,4.51
2023-02-13T08:23:26.976Z,4.74
2023-02-13T08:25:55.641Z,4.80
2023-02-13T08:28:23.554Z,4.90
2023-02-13T08:30:51.542Z,5.00
2023-02-13T08:33:19.194Z,5.44
2023-02-13T08:35:46.999Z,5.64
2023-02-13T08:38:14.907Z,5.28
2023-02-13T08:40:42.415Z,5.25
2023-02-13T08:43:10.860Z,5.21
2023-02-13T08:45:39.055Z,5.59
2023-02-13T08:48:07.655Z,5.75
2023-02-13T08:50:37.026Z,6.11
2023-02-13T08:53:05.766Z,6.05
2023-02-13T08:55:33.213Z,6.63
2023-02-13T08:58:04.146Z,6.41
2023-02-13T09:00:32.747Z,6.83
2023-02-13T09:03:04.113Z,6.70
2023-02-13T09:05:32.854Z,6.98
2023-02-13T09:08:02.902Z,7.12
2023-02-13T09:10:35.041Z,7.26
2023-02-13T09:13:03.928Z,7.14
2023-02-13T09:15:32.463Z,7.14
2023-02-13T09:18:00.028Z,7.18
2023-02-13T09:20:28.021Z,7.22
2023-02-13T09:22:56.927Z,7.54
2023-02-13T09:25:24.404Z,7.52
2023-02-13T09:27:52.309Z,7.59
2023-02-13T09:30:25.646Z,7.82
2023-02-13T09:32:54.895Z,7.74
2023-02-13T09:35:23.548Z,7.81
2023-02-13T09:37:51.067Z,8.30
2023-02-13T09:40:25.148Z,8.22
2023-02-13T09:42:54.992Z,8.77
2023-02-13T09:45:23.821Z,8.95
2023-02-13T09:47:51.375Z,8.91
2023-02-13T09:50:22.469Z,8.68
2023-02-13T09:52:52.188Z,8.95
2023-02-13T09:55:24.063Z,9.41
2023-02-13T09:58:19.246Z,8.90
2023-02-13T10:00:50.875Z,9.31
2023-02-13T10:03:48.601Z,9.44
2023-02-13T10:06:37.288Z,9.76
2023-02-13T10:09:12.828Z,9.83
2023-02-13T10:12:06.259Z,9.76
2023-02-13T10:14:46.457Z,9.65
2023-02-13T10:17:33.249Z,9.96
2023-02-13T10:20:31.195Z,9.78
2023-02-13T10:23:33.928Z,10.25
2023-02-13T10:26:04.587Z,9.92
2023-02-13T10:28:42.590Z,10.41
2023-02-13T10:31:15.085Z,10.68
2023-02-13T10:33:52.435Z,10.60
2023-02-13T10:36:20.143Z,11.07
2023-02-13T10:39:01.033Z,11.60
2023-02-13T10:41:52.357Z,10.63
2023-02-13T10:44:35.029Z,11.21
2023-02-13T10:47:02.810Z,11.08
2023-02-13T10:49:39.871Z,11.19
2023-02-13T10:52:32.705Z,11.50
2023-02-13T10:55:06.957Z,11.11
2023-02-13T10:57:41.177Z,11.44
2023-02-13T11:00:21.543Z,11.86
2023-02-13T11:02:49.516Z,11.41
2023-02-13T11:05:19.335Z,11.94
2023-02-13T11:07:47.702Z,11.67
2023-02-13T11:10:22.150Z,12.08
2023-02-13T11:12:50.436Z,12.29
2023-02-13T11:15:27.683Z,12.73
2023-02-13T11:17:57.031Z,12.71
2023-02-13T11:20:35.158Z,12.57
2023-02-13T11:23:20.962Z,13.19
2023-02-13T11:26:00.337Z,12.98
2023-02-13T11:28:30.424Z,13.01
2023-02-13T11:31:21.664Z,13.14
2023-02-13T11:33:49.291Z,13.19
2023-02-13T11:36:30.411Z,12.76
2023-02-13T11:39:07.371Z,13.17
2023-02-13T11:41:43.070Z,13.17
2023-02-13T11:44:28.663Z,12.94
2023-02-13T11:47:01.220Z,12.63
2023-02-13T11:49:35.204Z,12.76
2023-02-13T11:52:05.670Z,12.86
2023-02-13T11:54:39.348Z,12.62
2023-02-13T11:57:16.109Z,12.27
2023-02-13T11:59:45.129Z,12.21
2023-02-13T12:02:17.454Z,12.43
2023-02-13T12:04:45.982Z,12.36
2023-02-13T12:07:33.848Z,12.54
2023-02-13T12:10:11.768Z,11.77
2023-02-13T12:12:47.401Z,12.41
2023-02-13T12:15:21.011Z,12.23
2023-02-13T12:18:13.675Z,12.51
2023-02-13T12:21:10.859Z,12.46
2023-02-13T12:23:47.592Z,12.67
2023-02-13T12:26:36.499Z,12.74
2023-02-13T12:29:24.228Z,12.55
2023-02-13T12:31:58.300Z,11.91
2023-02-13T12:35:00.942Z,11.96
2023-02-13T12:38:00.118Z,12.14
2023-02-13T12:40:40.139Z,12.85
2023-02-13T12:43:18.587Z,13.25
2023-02-13T12:46:11.350Z,12.95
2023-02-13T12:49:09.354Z,13.18
2023-02-13T12:51:43.852Z,13.45
2023-02-13T12:54:42.632Z,13.44
2023-02-13T12:57:39.569Z,13.99
2023-02-13T13:00:15.842Z,13.64
2023-02-13T13:02:52.523Z,13.58
2023-02-13T13:05:32.677Z,13.32
2023-02-13T13:08:32.675Z,12.61
2023-02-13T13:11:38.183Z,12.33
2023-02-13T13:14:12.870Z,12.30
2023-02-13T13:16:43.150Z,12.68
2023-02-13T13:19:42.909Z,12.53
2023-02-13T13:22:18.510Z,12.64
2023-02-13T13:24:58.162Z,12.91
2023-02-13T13:27:38.864Z,12.82
2023-02-13T13:30:34.541Z,12.39
2023-02-13T13:33:10.752Z,12.09
2023-02-13T13:35:40.153Z,11.85
2023-02-13T13:38:19.881Z,11.91
2023-02-13T13:41:05.893Z,12.10
2023-02-13T13:43:42.199Z,12.03
2023-02-13T13:46:18.468Z,12.59
2023-02-13T13:49:00.100Z,12.82
2023-02-13T13:51:27.715Z,12.23
2023-02-13T13:54:04.011Z,12.33
2023-02-13T13:56:53.274Z,11.72
2023-02-13T13:59:41.900Z,11.86
2023-02-13T14:02:18.689Z,11.99
2023-02-13T14:05:24.461Z,11.97
2023-02-13T14:08:04.289Z,11.93
2023-02-13T14:10:31.973Z,11.64
2023-02-13T14:13:02.664Z,11.79
2023-02-13T14:15:44.715Z,12.25
2023-02-13T14:18:12.566Z,11.47
2023-02-13T14:20:52.203Z,11.34
2023-02-13T14:23:23.061Z,11.33
2023-02-13T14:26:02.075Z,11.32
2023-02-13T14:28:30.705Z,11.59
2023-02-13T14:31:07.981Z,11.12
2023-02-13T14:33:36.285Z,11.02
2023-02-13T14:36:08.948Z,11.25
2023-02-13T14:38:37.468Z,10.72
2023-02-13T14:41:07.310Z,10.83
2023-02-13T14:43:48.981Z,10.71
2023-02-13T14:46:30.211Z,10.61
2023-02-13T14:49:02.285Z,10.85
2023-02-13T14:51:36.367Z,10.76
2023-02-13T14:54:29.075Z,10.46
2023-02-13T14:57:01.389Z,10.51
2023-02-13T14:59:32.777Z,10.48
2023-02-13T15:02:06.410Z,10.40
2023-02-13T15:04:44.089Z,10.72
2023-02-13T15:07:23.779Z,10.40
2023-02-13T15:09:54.276Z,10.22
2023-02-13T15:12:33.216Z,10.20
2023-02-13T15:15:02.423Z,10.62
2023-02-13T15:17:38.323Z,10.69
2023-02-13T15:20:21.085Z,10.61
2023-02-13T15:22:49.156Z,10.81
2023-02-13T15:25:29.958Z,10.71
2023-02-13T15:27:59.793Z,10.76
2023-02-13T15:30:32.825Z,10.78
2023-02-13T15:33:03.886Z,10.73
2023-02-13T15:35:33.576Z,10.55
2023-02-13T15:38:25.919Z,10.92
2023-02-13T15:40:58.331Z,10.65
2023-02-13T15:43:37.947Z,10.78
2023-02-13T15:46:31.475Z,10.64
2023-02-13T15:49:02.068Z,10.81
2023-02-13T15:51:30.932Z,10.59
2023-02-13T15:54:01.595Z,10.51
2023-02-13T15:56:30.944Z,10.48
2023-02-13T15:59:00.569Z,10.17
2023-02-13T16:01:28.978Z,10.86
2023-02-13T16:04:02.811Z,10.38
2023-02-13T16:06:30.621Z,10.52
2023-02-13T16:08:59.746Z,10.49
2023-02-13T16:11:39.953Z,10.34
2023-02-13T16:14:10.740Z,10.65
2023-02-13T16:16:51.800Z,10.54
2023-02-13T16:19:25.842Z,10.55
2023-02-13T16:21:54.813Z,10.55
2023-02-13T16:24:23.142Z,10.56
2023-02-13T16:26:50.693Z,10.46
2023-02-13T16:29:23.905Z,10.75
2023-02-13T16:31:53.662Z,10.30
2023-02-13T16:34:29.613Z,10.60
2023-02-13T16:36:57.803Z,10.12
2023-02-13T16:39:31.364Z,10.20
2023-02-13T16:42:00.302Z,10.25
2023-02-13T16:44:31.330Z,10.21
2023-02-13T16:47:01.734Z,9.91
2023-02-13T16:49:33.906Z,9.94
2023-02-13T16:52:21.109Z,10.05
2023-02-13T16:54:55.647Z,10.01
2023-02-13T16:57:35.818Z,10.01
2023-02-13T17:00:24.471Z,9.91
2023-02-13T17:02:53.294Z,9.82
2023-02-13T17:05:27.660Z,9.75
2023-02-13T17:08:01.499Z,9.68
2023-02-13T17:10:35.858Z,9.78
2023-02-13T17:13:17.733Z,9.85
2023-02-13T17:15:48.761Z,9.81
2023-02-13T17:18:16.626Z,9.74
2023-02-13T17:20:44.946Z,9.71
2023-02-13T17:23:22.548Z,9.56
2023-02-13T17:25:52.625Z,9.57
2023-02-13T17:28:23.169Z,9.13
2023-02-13T17:30:53.201Z,9.18
2023-02-13T17:33:31.607Z,9.16
2023-02-13T17:35:59.946Z,9.15
2023-02-13T17:38:27.564Z,9.16
2023-02-13T17:40:55.242Z,9.01
2023-02-13T17:43:23.210Z,8.98
2023-02-13T17:45:51.098Z,8.72
2023-02-13T17:48:18.592Z,8.74
2023-02-13T17:50:47.490Z,8.67
2023-02-13T17:53:33.126Z,8.82
2023-02-13T17:56:01.221Z,8.61
2023-02-13T17:58:28.750Z,8.63
2023-02-13T18:00:56.421Z,8.58
2023-02-13T18:03:24.536Z,8.19
2023-02-13T18:05:52.324Z,8.40
2023-02-13T18:08:20.424Z,8.48
2023-02-13T18:10:49.145Z,8.39
2023-02-13T18:13:16.760Z,8.39
2023-02-13T18:15:45.077Z,8.40
2023-02-13T18:18:15.979Z,8.28
2023-02-13T18:20:46.945Z,8.37
2023-02-13T18:23:14.736Z,8.26
2023-02-13T18:25:45.339Z,8.17
2023-02-13T18:28:13.158Z,8.16
2023-02-13T18:30:42.986Z,8.14
2023-02-13T18:33:10.624Z,8.05
2023-02-13T18:35:38.286Z,8.07
2023-02-13T18:38:08.889Z,8.09
2023-02-13T18:40:37.023Z,8.15
2023-02-13T18:43:04.782Z,8.02
2023-02-13T18:45:32.665Z,8.01
2023-02-13T18:48:01.221Z,7.95
2023-02-13T18:50:29.099Z,7.90
2023-02-13T18:52:56.953Z,7.87
2023-02-13T18:55:24.609Z,7.56
2023-02-13T18:57:52.996Z,7.62
2023-02-13T19:00:26.668Z,7.53
2023-02-13T19:02:54.403Z,7.67
2023-02-13T19:05:22.771Z,7.62
2023-02-13T19:08:00.622Z,7.44
2023-02-13T19:10:28.960Z,7.30
2023-02-13T19:12:56.493Z,7.30
2023-02-13T19:15:24.005Z,7.22
2023-02-13T19:17:54.095Z,6.98
2023-02-13T19:20:21.699Z,7.00
2023-02-13T19:22:49.660Z,7.11
2023-02-13T19:25:19.046Z,7.03
2023-02-13T19:27:46.746Z,6.85
2023-02-13T19:30:14.325Z,6.89
2023-02-13T19:32:42.066Z,6.65
2023-02-13T19:35:09.744Z,6.55
2023-02-13T19:37:43.922Z,6.65
2023-02-13T19:40:13.583Z,6.65
2023-02-13T19:42:41.489Z,6.32
2023-02-13T19:45:09.583Z,6.32
2023-02-13T19:47:37.506Z,6.74
2023-02-13T19:50:06.673Z,6.54
2023-02-13T19:52:35.214Z,6.73
2023-02-13T19:55:03.077Z,6.76
2023-02-13T19:57:30.631Z,6.80
2023-02-13T20:00:01.764Z,6.61
2023-02-13T20:02:39.374Z,6.54
2023-02-13T20:05:08.876Z,6.34
2023-02-13T20:07:36.795Z,6.40
2023-02-13T20:10:06.276Z,6.41
2023-02-13T20:12:35.051Z,6.45
2023-02-13T20:15:03.388Z,6.24
2023-02-13T20:17:31.222Z,6.71
2023-02-13T20:19:59.315Z,6.37
2023-02-13T20:22:26.954Z,6.33
2023-02-13T20:24:54.434Z,6.21
2023-02-13T20:27:22.348Z,6.34
2023-02-13T20:29:51.372Z,6.40
2023-02-13T20:32:19.236Z,6.15
2023-02-13T20:34:59.050Z,6.13
2023-02-13T20:37:27.902Z,6.04
2023-02-13T20:39:55.708Z,5.70
2023-02-13T20:42:23.341Z,5.78
2023-02-13T20:44:50.895Z,5.68
2023-02-13T20:47:19.404Z,5.93
2023-02-13T20:49:46.860Z,5.29
2023-02-13T20:52:14.636Z,5.48
2023-02-13T20:54:43.577Z,5.28
2023-02-13T20:57:11.104Z,5.04
2023-02-13T20:59:38.907Z,5.16
2023-02-13T21:02:07.118Z,5.34
2023-02-13T21:04:34.810Z,5.43
2023-02-13T21:07:03.624Z,5.13
2023-02-13T21:09:31.515Z,5.00
2023-02-13T21:11:58.958Z,5.02
2023-02-13T21:14:26.362Z,4.97
2023-02-13T21:16:54.437Z,5.13
2023-02-13T21:19:22.052Z,5.04
2023-02-13T21:21:49.572Z,4.91
2023-02-13T21:24:21.122Z,4.88
2023-02-13T21:26:50.634Z,4.94
2023-02-13T21:29:19.152Z,4.72
2023-02-13T21:31:51.205Z,4.74
2023-02-13T21:34:19.255Z,4.74
2023-02-13T21:36:46.805Z,4.60
2023-02-13T21:39:14.811Z,4.60
2023-02-13T21:41:44.238Z,4.69
2023-02-13T21:44:14.242Z,4.65
2023-02-13T21:46:44.023Z,4.60
2023-02-13T21:49:14.834Z,4.60
2023-02-13T21:51:42.924Z,4.59
2023-02-13T21:54:11.200Z,4.62
2023-02-13T21:56:40.971Z,4.53
2023-02-13T21:59:09.036Z,4.41
2023-02-13T22:01:46.613Z,4.54
2023-02-13T22:04:14.829Z,4.43
2023-02-13T22:06:42.762Z,4.10
2023-02-13T22:09:13.539Z,4.15
2023-02-13T22:11:42.533Z,4.14
2023-02-13T22:14:19.533Z,4.22
2023-02-13T22:16:50.058Z,4.10
2023-02-13T22:19:18.199Z,4.04
2023-02-13T22:21:46.203Z,4.09
2023-02-13T22:24:14.527Z,4.11
2023-02-13T22:26:45.234Z,4.06
2023-02-13T22:29:15.214Z,4.08
2023-02-13T22:31:43.312Z,4.22
2023-02-13T22:34:12.606Z,3.98
2023-02-13T22:36:41.119Z,4.02
2023-02-13T22:39:11.258Z,4.04
2023-02-13T22:41:39.215Z,4.07
2023-02-13T22:44:06.777Z,4.51
2023-02-13T22:46:35.174Z,4.06
2023-02-13T22:49:02.739Z,3.87
2023-02-13T22:51:35.836Z,3.69
2023-02-13T22:54:04.272Z,3.87
2023-02-13T22:56:32.610Z,3.66
2023-02-13T22:59:00.609Z,3.31
2023-02-13T23:01:29.384Z,3.27
2023-02-13T23:03:57.473Z,3.46
2023-02-13T23:06:25.304Z,3.50
2023-02-13T23:08:53.987Z,3.78
2023-02-13T23:11:43.923Z,3.95
2023-02-13T23:14:12.320Z,4.19
2023-02-13T23:16:59.537Z,4.47
2023-02-13T23:19:29.781Z,4.72
2023-02-13T23:21:58.652Z,4.71
2023-02-13T23:24:26.343Z,5.01
2023-02-13T23:26:54.350Z,5.03
2023-02-13T23:29:21.903Z,5.45
2023-02-13T23:31:49.439Z,5.49
2023-02-13T23:34:17.479Z,5.74
2023-02-13T23:36:45.097Z,5.81
2023-02-13T23:39:12.616Z,5.64
2023-02-13T23:41:40.530Z,5.78
2023-02-13T23:44:08.263Z,5.80
2023-02-13T23:46:35.867Z,5.87
2023-02-13T23:49:05.561Z,5.98
2023-02-13T23:51:34.670Z,6.09
2023-02-13T23:54:02.129Z,6.06
2023-02-13T23:56:29.849Z,6.09
2023-02-13T23:58:57.500Z,6.22
